ANZ24 NZAA-CYVR
Flight info
| Callsign | ANZ24 |
|---|---|
| Flight time | N/A |
| Altitude | 31000 |
| Route | TARIB DCT 32S180E 28S175W DCT NUGLI/N0497F330 DCT 20S165W DCT ASORO DCT 14S160W DCT MEGOG DCT 05S155W 00N153W/N0490F350 05N150W 10N147W 15N144W 20N140W 25N136W/N0479F370 DCT ETECO DCT 32N130W DCT ALANN DCT ZONSO/N0477F380 DCT PEBLL DCT KS69C DCT OLM/N0467F390 DCT PAE GRIZZ9 |
| Aircraft | B77W/H-SDE1E2E3FGHIJ2J3J4J5M1RWXY/LB1D1 |
Departure
| Time | 2026-05-03 21:09 |
|---|---|
| Airport | Auckland International Airport (NZAA) |
Arrival
| Time | N/A |
|---|---|
| Airport | Vancouver International Airport (CYVR) |
| Time | Latitude | Longitude | Altitude | Speed | Heading |
|---|---|---|---|---|---|
| 2026-05-03 20:42 | -37.00864 | 174.78218 | 34 ft | 0 kts | 16° |
| 2026-05-03 20:57 | -37.00869 | 174.78217 | 34 ft | 2 kts | 16° |
| 2026-05-03 20:57 | -37.00883 | 174.78210 | 33 ft | 2 kts | 28° |
| 2026-05-03 20:58 | -37.00895 | 174.78200 | 33 ft | 2 kts | 45° |
| 2026-05-03 20:58 | -37.00905 | 174.78186 | 33 ft | 2 kts | 58° |
| 2026-05-03 20:58 | -37.00912 | 174.78169 | 33 ft | 2 kts | 72° |
| 2026-05-03 20:58 | -37.00915 | 174.78151 | 33 ft | 2 kts | 86° |
| 2026-05-03 20:59 | -37.00914 | 174.78133 | 34 ft | 2 kts | 99° |
| 2026-05-03 20:59 | -37.00911 | 174.78114 | 34 ft | 2 kts | 113° |
| 2026-05-03 20:59 | -37.00907 | 174.78105 | 34 ft | 1 kts | 121° |
| 2026-05-03 20:59 | -37.00906 | 174.78104 | 34 ft | 0 kts | 121° |
| 2026-05-03 21:01 | -37.00907 | 174.78105 | 34 ft | 0 kts | 121° |
| 2026-05-03 21:01 | -37.00921 | 174.78136 | 33 ft | 6 kts | 119° |
| 2026-05-03 21:02 | -37.00944 | 174.78188 | 32 ft | 6 kts | 119° |
| 2026-05-03 21:02 | -37.00972 | 174.78233 | 32 ft | 6 kts | 136° |
| 2026-05-03 21:02 | -37.01007 | 174.78265 | 31 ft | 6 kts | 149° |
| 2026-05-03 21:02 | -37.01041 | 174.78284 | 31 ft | 4 kts | 167° |
| 2026-05-03 21:03 | -37.01068 | 174.78282 | 31 ft | 3 kts | 196° |
| 2026-05-03 21:03 | -37.01087 | 174.78270 | 31 ft | 3 kts | 217° |
| 2026-05-03 21:03 | -37.01109 | 174.78241 | 31 ft | 5 kts | 233° |
| 2026-05-03 21:03 | -37.01130 | 174.78191 | 31 ft | 7 kts | 245° |
| 2026-05-03 21:04 | -37.01150 | 174.78125 | 31 ft | 8 kts | 251° |
| 2026-05-03 21:04 | -37.01172 | 174.78047 | 31 ft | 10 kts | 251° |
| 2026-05-03 21:04 | -37.01197 | 174.77954 | 31 ft | 11 kts | 251° |
| 2026-05-03 21:04 | -37.01225 | 174.77852 | 31 ft | 12 kts | 251° |
| 2026-05-03 21:05 | -37.01254 | 174.77743 | 31 ft | 13 kts | 250° |
| 2026-05-03 21:05 | -37.01287 | 174.77626 | 31 ft | 14 kts | 252° |
| 2026-05-03 21:05 | -37.01320 | 174.77502 | 31 ft | 15 kts | 251° |
| 2026-05-03 21:05 | -37.01358 | 174.77370 | 30 ft | 16 kts | 250° |
| 2026-05-03 21:06 | -37.01394 | 174.77241 | 28 ft | 14 kts | 250° |
| 2026-05-03 21:06 | -37.01432 | 174.77132 | 28 ft | 12 kts | 227° |
| 2026-05-03 21:06 | -37.01506 | 174.77097 | 28 ft | 10 kts | 191° |
| 2026-05-03 21:06 | -37.01572 | 174.77081 | 28 ft | 8 kts | 189° |
| 2026-05-03 21:07 | -37.01624 | 174.77061 | 28 ft | 6 kts | 221° |
| 2026-05-03 21:07 | -37.01646 | 174.77016 | 28 ft | 5 kts | 244° |
| 2026-05-03 21:07 | -37.01662 | 174.76965 | 28 ft | 7 kts | 251° |
| 2026-05-03 21:07 | -37.01678 | 174.76900 | 28 ft | 7 kts | 265° |
| 2026-05-03 21:08 | -37.01676 | 174.76846 | 28 ft | 3 kts | 246° |
| 2026-05-03 21:08 | -37.01688 | 174.76842 | 28 ft | 1 kts | 169° |
| 2026-05-03 21:08 | -37.01694 | 174.76851 | 28 ft | 1 kts | 108° |
| 2026-05-03 21:08 | -37.01680 | 174.76907 | 28 ft | 20 kts | 69° |
| 2026-05-03 21:09 | -37.01556 | 174.77350 | 28 ft | 86 kts | 71° |
| 2026-05-03 21:09 | -37.01297 | 174.78288 | 31 ft | 143 kts | 71° |
| 2026-05-03 21:09 | -37.00909 | 174.79684 | 95 ft | 186 kts | 71° |
| 2026-05-03 21:09 | -37.00506 | 174.81184 | 742 ft | 185 kts | 72° |
| 2026-05-03 21:10 | -37.00092 | 174.82692 | 1480 ft | 189 kts | 70° |
| 2026-05-03 21:10 | -36.99655 | 174.84238 | 2048 ft | 192 kts | 70° |
| 2026-05-03 21:10 | -36.99211 | 174.85829 | 2512 ft | 196 kts | 70° |
| 2026-05-03 21:10 | -36.98763 | 174.87447 | 3041 ft | 198 kts | 70° |
| 2026-05-03 21:11 | -36.98303 | 174.89105 | 3393 ft | 210 kts | 70° |
| 2026-05-03 21:11 | -36.97810 | 174.90878 | 3691 ft | 225 kts | 70° |
| 2026-05-03 21:11 | -36.97281 | 174.92786 | 4027 ft | 241 kts | 71° |
| 2026-05-03 21:11 | -36.96716 | 174.94817 | 4509 ft | 251 kts | 71° |
| 2026-05-03 21:12 | -36.96141 | 174.96883 | 5162 ft | 255 kts | 71° |
| 2026-05-03 21:12 | -36.95551 | 174.99004 | 5846 ft | 257 kts | 71° |
| 2026-05-03 21:12 | -36.94863 | 175.01067 | 6485 ft | 260 kts | 58° |
| 2026-05-03 21:12 | -36.93621 | 175.02705 | 7095 ft | 266 kts | 35° |
| 2026-05-03 21:13 | -36.91904 | 175.03593 | 7683 ft | 274 kts | 11° |
| 2026-05-03 21:13 | -36.89996 | 175.03676 | 8298 ft | 280 kts | 1° |
| 2026-05-03 21:13 | -36.88036 | 175.03555 | 8953 ft | 282 kts | 0° |
| 2026-05-03 21:13 | -36.86072 | 175.03435 | 9547 ft | 285 kts | 1° |
| 2026-05-03 21:14 | -36.84113 | 175.03326 | 10142 ft | 287 kts | 1° |
| 2026-05-03 21:14 | -36.82059 | 175.03221 | 10498 ft | 301 kts | 1° |
| 2026-05-03 21:14 | -36.79914 | 175.03111 | 10818 ft | 315 kts | 1° |
| 2026-05-03 21:14 | -36.77666 | 175.02997 | 11134 ft | 330 kts | 1° |
| 2026-05-03 21:15 | -36.75349 | 175.02878 | 11466 ft | 344 kts | 0° |
| 2026-05-03 21:15 | -36.72881 | 175.02753 | 11829 ft | 359 kts | 0° |
| 2026-05-03 21:15 | -36.70360 | 175.02623 | 12281 ft | 369 kts | 0° |
| 2026-05-03 21:15 | -36.67764 | 175.02489 | 12946 ft | 373 kts | 0° |
| 2026-05-03 21:16 | -36.65182 | 175.02356 | 13684 ft | 375 kts | 0° |
| 2026-05-03 21:16 | -36.62585 | 175.02222 | 14371 ft | 379 kts | 0° |
| 2026-05-03 21:16 | -36.59904 | 175.02086 | 15029 ft | 383 kts | 360° |
| 2026-05-03 21:16 | -36.57254 | 175.01950 | 15689 ft | 386 kts | 360° |
| 2026-05-03 21:17 | -36.54568 | 175.01811 | 16343 ft | 389 kts | 360° |
| 2026-05-03 21:17 | -36.52770 | 175.01682 | 16746 ft | 392 kts | 356° |
| 2026-05-03 21:17 | -36.49163 | 175.00674 | 16982 ft | 402 kts | 342° |
| 2026-05-03 21:17 | -36.46637 | 174.99231 | 16838 ft | 402 kts | 332° |
| 2026-05-03 21:18 | -36.44362 | 174.97226 | 16658 ft | 403 kts | 321° |
| 2026-05-03 21:18 | -36.42400 | 174.94719 | 16295 ft | 406 kts | 311° |
| 2026-05-03 21:18 | -36.40848 | 174.91820 | 15913 ft | 406 kts | 300° |
| 2026-05-03 21:18 | -36.39751 | 174.88600 | 15529 ft | 406 kts | 289° |
| 2026-05-03 21:19 | -36.39151 | 174.85173 | 15159 ft | 407 kts | 278° |
| 2026-05-03 21:19 | -36.39072 | 174.81661 | 14773 ft | 408 kts | 267° |
| 2026-05-03 21:19 | -36.39518 | 174.78198 | 14402 ft | 407 kts | 256° |
| 2026-05-03 21:19 | -36.40457 | 174.74937 | 14023 ft | 406 kts | 245° |
| 2026-05-03 21:20 | -36.41882 | 174.71915 | 13659 ft | 404 kts | 233° |
| 2026-05-03 21:20 | -36.43606 | 174.69205 | 13292 ft | 402 kts | 230° |
| 2026-05-03 21:20 | -36.45383 | 174.66513 | 12923 ft | 400 kts | 230° |
| 2026-05-03 21:20 | -36.47127 | 174.63872 | 12569 ft | 397 kts | 230° |
| 2026-05-03 21:21 | -36.48864 | 174.61226 | 12209 ft | 395 kts | 230° |
| 2026-05-03 21:21 | -36.50605 | 174.58563 | 11851 ft | 393 kts | 230° |
| 2026-05-03 21:21 | -36.52305 | 174.55945 | 11488 ft | 391 kts | 230° |
| 2026-05-03 21:21 | -36.54004 | 174.53320 | 11122 ft | 386 kts | 230° |
| 2026-05-03 21:22 | -36.55666 | 174.50742 | 10758 ft | 381 kts | 230° |
| 2026-05-03 21:22 | -36.57313 | 174.48177 | 10394 ft | 377 kts | 230° |
| 2026-05-03 21:22 | -36.58933 | 174.45644 | 10030 ft | 372 kts | 230° |
| 2026-05-03 21:22 | -36.60525 | 174.43143 | 9669 ft | 368 kts | 230° |
| 2026-05-03 21:23 | -36.62102 | 174.40655 | 9230 ft | 359 kts | 230° |
| 2026-05-03 21:23 | -36.63616 | 174.38260 | 8870 ft | 346 kts | 230° |
| 2026-05-03 21:23 | -36.65078 | 174.35936 | 8515 ft | 339 kts | 230° |
| 2026-05-03 21:23 | -36.66516 | 174.33647 | 8214 ft | 334 kts | 230° |
| 2026-05-03 21:24 | -36.67937 | 174.31384 | 7840 ft | 332 kts | 230° |
| 2026-05-03 21:24 | -36.69373 | 174.29100 | 7466 ft | 330 kts | 230° |
| 2026-05-03 21:24 | -36.70778 | 174.26868 | 7095 ft | 328 kts | 230° |
| 2026-05-03 21:24 | -36.72176 | 174.24644 | 6715 ft | 326 kts | 230° |
| 2026-05-03 21:25 | -36.73566 | 174.22433 | 6334 ft | 321 kts | 230° |
| 2026-05-03 21:25 | -36.74918 | 174.20285 | 5966 ft | 316 kts | 230° |
| 2026-05-03 21:25 | -36.76290 | 174.18173 | 5587 ft | 310 kts | 223° |
| 2026-05-03 21:25 | -36.78040 | 174.16698 | 5192 ft | 299 kts | 197° |
| 2026-05-03 21:26 | -36.80042 | 174.16304 | 4801 ft | 288 kts | 171° |
| 2026-05-03 21:26 | -36.81889 | 174.16998 | 4415 ft | 277 kts | 148° |
| 2026-05-03 21:26 | -36.83518 | 174.18268 | 4049 ft | 272 kts | 144° |
| 2026-05-03 21:26 | -36.85075 | 174.19580 | 3679 ft | 270 kts | 143° |
| 2026-05-03 21:27 | -36.86603 | 174.20883 | 3317 ft | 267 kts | 143° |
| 2026-05-03 21:27 | -36.88145 | 174.22195 | 3012 ft | 265 kts | 143° |
| 2026-05-03 21:27 | -36.89645 | 174.23469 | 2967 ft | 257 kts | 143° |
| 2026-05-03 21:27 | -36.91109 | 174.24715 | 2963 ft | 254 kts | 143° |
| 2026-05-03 21:28 | -36.92554 | 174.25943 | 2962 ft | 246 kts | 143° |
| 2026-05-03 21:28 | -36.93949 | 174.27130 | 2961 ft | 235 kts | 143° |
| 2026-05-03 21:28 | -36.95280 | 174.28259 | 2978 ft | 230 kts | 143° |
| 2026-05-03 21:28 | -36.96595 | 174.29375 | 2967 ft | 227 kts | 143° |
| 2026-05-03 21:29 | -36.97895 | 174.30481 | 2967 ft | 226 kts | 143° |
| 2026-05-03 21:29 | -36.99209 | 174.31604 | 2966 ft | 225 kts | 143° |
| 2026-05-03 21:29 | -37.00473 | 174.32677 | 2960 ft | 214 kts | 143° |
| 2026-05-03 21:29 | -37.01698 | 174.33708 | 2962 ft | 209 kts | 143° |
| 2026-05-03 21:30 | -37.02891 | 174.34711 | 2963 ft | 207 kts | 143° |
| 2026-05-03 21:30 | -37.04093 | 174.35716 | 2963 ft | 206 kts | 143° |
| 2026-05-03 21:30 | -37.05291 | 174.36717 | 2966 ft | 206 kts | 143° |
| 2026-05-03 21:30 | -37.06495 | 174.37730 | 2965 ft | 207 kts | 143° |
| 2026-05-03 21:31 | -37.07538 | 174.38917 | 2942 ft | 202 kts | 117° |
| 2026-05-03 21:31 | -37.07861 | 174.40596 | 2947 ft | 201 kts | 85° |
| 2026-05-03 21:31 | -37.07703 | 174.42328 | 2961 ft | 199 kts | 81° |
| 2026-05-03 21:31 | -37.07502 | 174.44058 | 2965 ft | 199 kts | 82° |
| 2026-05-03 21:32 | -37.07471 | 174.45789 | 2975 ft | 199 kts | 91° |
| 2026-05-03 21:32 | -37.07537 | 174.47507 | 2975 ft | 199 kts | 92° |
| 2026-05-03 21:32 | -37.07609 | 174.49249 | 2980 ft | 200 kts | 92° |
| 2026-05-03 21:32 | -37.07681 | 174.50989 | 2981 ft | 199 kts | 92° |
| 2026-05-03 21:33 | -37.07870 | 174.52708 | 2980 ft | 200 kts | 96° |
| 2026-05-03 21:33 | -37.07826 | 174.54408 | 2964 ft | 189 kts | 78° |
| 2026-05-03 21:33 | -37.07486 | 174.55963 | 2967 ft | 182 kts | 71° |
| 2026-05-03 21:33 | -37.07078 | 174.57430 | 2983 ft | 178 kts | 70° |
| 2026-05-03 21:34 | -37.06672 | 174.58861 | 2970 ft | 167 kts | 70° |
| 2026-05-03 21:34 | -37.06292 | 174.60217 | 2826 ft | 163 kts | 70° |
| 2026-05-03 21:34 | -37.05923 | 174.61546 | 2613 ft | 162 kts | 70° |
| 2026-05-03 21:34 | -37.05555 | 174.62882 | 2398 ft | 161 kts | 70° |
| 2026-05-03 21:35 | -37.05192 | 174.64195 | 2188 ft | 160 kts | 70° |
| 2026-05-03 21:35 | -37.04826 | 174.65527 | 1968 ft | 159 kts | 70° |
| 2026-05-03 21:35 | -37.04471 | 174.66829 | 1759 ft | 160 kts | 70° |
| 2026-05-03 21:35 | -37.04137 | 174.68034 | 1560 ft | 160 kts | 70° |
| 2026-05-03 21:36 | -37.03773 | 174.69353 | 1343 ft | 161 kts | 70° |
| 2026-05-03 21:36 | -37.03406 | 174.70694 | 1119 ft | 161 kts | 71° |
| 2026-05-03 21:36 | -37.03040 | 174.72017 | 906 ft | 161 kts | 70° |
| 2026-05-03 21:36 | -37.02668 | 174.73343 | 678 ft | 161 kts | 71° |
| 2026-05-03 21:37 | -37.02304 | 174.74666 | 467 ft | 160 kts | 71° |
| 2026-05-03 21:37 | -37.01939 | 174.75966 | 243 ft | 160 kts | 71° |
| 2026-05-03 21:37 | -37.01572 | 174.77287 | 50 ft | 158 kts | 72° |
| 2026-05-03 21:37 | -37.01251 | 174.78451 | 31 ft | 121 kts | 70° |
| 2026-05-03 21:38 | -37.01026 | 174.79269 | 34 ft | 77 kts | 71° |
| 2026-05-03 21:38 | -37.00942 | 174.79573 | 37 ft | 21 kts | 70° |